Young Harris, Georgia
Current Conditions -  °F | °C
As of 9:35 AM on Thursday 27 Nov 2014 (Local Time) from KRHP Reporting Station
Light Snow Light Snow  
Wind Chill: 29°   Ceiling: 3400
Heat Index: 35°   Visibility: 7mi
Dew Point: 31°   Wind: 8mph
Humidity: 85%   Direction: 250°WSW
Pressure: 30.18"   Gusts: NA
Location:  34.93°N, 83.85°W
Report Text: KRHP 271435Z AUTO 25007KT 220V280 7SM -SN OVC034 02/M01 A3018 RMK AO2 T00171006
Loading
Personal Weather Stations






























Interactive Weather Map New forecast layout! Learn more

10-Day Weather Forecast

Advertisements
Track Severe Weather on mobile